sensor_id;sensor_type;location;lat;lon;timestamp;P1;durP1;ratioP1;P2;durP2;ratioP2
69244;SDS011;56357;52.304;4.870;2023-12-28T00:01:46;6.50;;;1.10;;
69244;SDS011;56357;52.304;4.870;2023-12-28T00:04:12;4.60;;;1.33;;
69244;SDS011;56357;52.304;4.870;2023-12-28T00:06:38;5.57;;;1.25;;
69244;SDS011;56357;52.304;4.870;2023-12-28T00:09:05;5.85;;;1.17;;
69244;SDS011;56357;52.304;4.870;2023-12-28T00:11:31;5.03;;;1.20;;
69244;SDS011;56357;52.304;4.870;2023-12-28T00:13:58;4.60;;;1.00;;
69244;SDS011;56357;52.304;4.870;2023-12-28T00:16:24;5.70;;;1.23;;
69244;SDS011;56357;52.304;4.870;2023-12-28T00:18:50;8.00;;;1.23;;
69244;SDS011;56357;52.304;4.870;2023-12-28T00:21:17;5.03;;;1.10;;
69244;SDS011;56357;52.304;4.870;2023-12-28T00:23:43;6.70;;;1.53;;
69244;SDS011;56357;52.304;4.870;2023-12-28T00:26:09;4.10;;;0.85;;
69244;SDS011;56357;52.304;4.870;2023-12-28T00:28:36;7.80;;;1.60;;
69244;SDS011;56357;52.304;4.870;2023-12-28T00:31:02;5.93;;;1.10;;
69244;SDS011;56357;52.304;4.870;2023-12-28T00:33:28;6.50;;;1.33;;
69244;SDS011;56357;52.304;4.870;2023-12-28T00:35:55;7.53;;;1.27;;
69244;SDS011;56357;52.304;4.870;2023-12-28T00:38:21;7.20;;;1.27;;
69244;SDS011;56357;52.304;4.870;2023-12-28T00:40:47;4.63;;;1.05;;
69244;SDS011;56357;52.304;4.870;2023-12-28T00:43:14;5.00;;;1.05;;
69244;SDS011;56357;52.304;4.870;2023-12-28T00:45:40;5.80;;;1.10;;
69244;SDS011;56357;52.304;4.870;2023-12-28T00:48:07;4.33;;;0.97;;
69244;SDS011;56357;52.304;4.870;2023-12-28T00:50:34;4.50;;;1.15;;
69244;SDS011;56357;52.304;4.870;2023-12-28T00:53:00;9.20;;;1.83;;
69244;SDS011;56357;52.304;4.870;2023-12-28T00:55:27;5.07;;;0.98;;
69244;SDS011;56357;52.304;4.870;2023-12-28T00:57:53;5.22;;;1.17;;
69244;SDS011;56357;52.304;4.870;2023-12-28T01:00:20;4.67;;;0.90;;
69244;SDS011;56357;52.304;4.870;2023-12-28T01:02:46;7.07;;;1.20;;
69244;SDS011;56357;52.304;4.870;2023-12-28T01:05:13;4.53;;;1.20;;
69244;SDS011;56357;52.304;4.870;2023-12-28T01:07:40;4.88;;;1.27;;
69244;SDS011;56357;52.304;4.870;2023-12-28T01:10:07;4.50;;;0.90;;
69244;SDS011;56357;52.304;4.870;2023-12-28T01:12:33;4.97;;;1.20;;
69244;SDS011;56357;52.304;4.870;2023-12-28T01:15:00;6.07;;;0.93;;
69244;SDS011;56357;52.304;4.870;2023-12-28T01:17:26;7.18;;;1.23;;
69244;SDS011;56357;52.304;4.870;2023-12-28T01:19:52;4.78;;;0.90;;
69244;SDS011;56357;52.304;4.870;2023-12-28T01:22:19;7.28;;;1.08;;
69244;SDS011;56357;52.304;4.870;2023-12-28T01:24:48;3.60;;;0.83;;
69244;SDS011;56357;52.304;4.870;2023-12-28T01:27:15;5.05;;;1.02;;
69244;SDS011;56357;52.304;4.870;2023-12-28T01:29:41;4.65;;;1.52;;
69244;SDS011;56357;52.304;4.870;2023-12-28T01:32:08;4.40;;;0.82;;
69244;SDS011;56357;52.304;4.870;2023-12-28T01:34:34;4.68;;;1.17;;
69244;SDS011;56357;52.304;4.870;2023-12-28T01:37:00;3.87;;;0.83;;
69244;SDS011;56357;52.304;4.870;2023-12-28T01:39:27;5.70;;;1.00;;
69244;SDS011;56357;52.304;4.870;2023-12-28T01:41:53;4.95;;;0.73;;
69244;SDS011;56357;52.304;4.870;2023-12-28T01:44:20;5.88;;;1.10;;
69244;SDS011;56357;52.304;4.870;2023-12-28T01:46:46;5.95;;;1.10;;
69244;SDS011;56357;52.304;4.870;2023-12-28T01:49:13;5.23;;;1.03;;
69244;SDS011;56357;52.304;4.870;2023-12-28T01:51:39;4.40;;;0.95;;
69244;SDS011;56357;52.304;4.870;2023-12-28T01:54:06;5.53;;;0.98;;
69244;SDS011;56357;52.304;4.870;2023-12-28T01:56:32;5.22;;;0.80;;
69244;SDS011;56357;52.304;4.870;2023-12-28T01:59:00;5.65;;;1.30;;
69244;SDS011;56357;52.304;4.870;2023-12-28T02:01:26;4.63;;;1.27;;
69244;SDS011;56357;52.304;4.870;2023-12-28T02:03:53;4.03;;;1.00;;
69244;SDS011;56357;52.304;4.870;2023-12-28T02:06:22;6.63;;;1.20;;
69244;SDS011;56357;52.304;4.870;2023-12-28T02:08:49;4.93;;;0.80;;
69244;SDS011;56357;52.304;4.870;2023-12-28T02:11:17;3.72;;;0.80;;
69244;SDS011;56357;52.304;4.870;2023-12-28T02:13:45;6.50;;;0.90;;
69244;SDS011;56357;52.304;4.870;2023-12-28T02:16:15;6.03;;;1.10;;
69244;SDS011;56357;52.304;4.870;2023-12-28T02:18:47;4.65;;;0.90;;
69244;SDS011;56357;52.304;4.870;2023-12-28T02:21:16;3.55;;;0.80;;
69244;SDS011;56357;52.304;4.870;2023-12-28T02:23:48;3.42;;;0.82;;
69244;SDS011;56357;52.304;4.870;2023-12-28T02:26:18;4.87;;;1.00;;
69244;SDS011;56357;52.304;4.870;2023-12-28T02:28:44;6.05;;;1.55;;
69244;SDS011;56357;52.304;4.870;2023-12-28T02:31:26;4.53;;;0.80;;
69244;SDS011;56357;52.304;4.870;2023-12-28T02:33:58;4.90;;;0.80;;
69244;SDS011;56357;52.304;4.870;2023-12-28T02:36:30;5.55;;;1.25;;
69244;SDS011;56357;52.304;4.870;2023-12-28T02:38:58;4.67;;;1.00;;
69244;SDS011;56357;52.304;4.870;2023-12-28T02:41:28;6.18;;;0.77;;
69244;SDS011;56357;52.304;4.870;2023-12-28T02:43:56;4.22;;;0.98;;
69244;SDS011;56357;52.304;4.870;2023-12-28T02:46:22;4.72;;;0.60;;
69244;SDS011;56357;52.304;4.870;2023-12-28T02:48:49;6.50;;;1.02;;
69244;SDS011;56357;52.304;4.870;2023-12-28T02:51:16;5.10;;;1.10;;
69244;SDS011;56357;52.304;4.870;2023-12-28T02:53:42;4.45;;;0.85;;
69244;SDS011;56357;52.304;4.870;2023-12-28T02:56:08;4.55;;;1.00;;
69244;SDS011;56357;52.304;4.870;2023-12-28T02:58:35;5.38;;;0.70;;
69244;SDS011;56357;52.304;4.870;2023-12-28T03:01:01;5.35;;;1.30;;
69244;SDS011;56357;52.304;4.870;2023-12-28T03:03:27;4.13;;;0.87;;
69244;SDS011;56357;52.304;4.870;2023-12-28T03:05:54;4.60;;;0.80;;
69244;SDS011;56357;52.304;4.870;2023-12-28T03:08:20;4.32;;;0.63;;
69244;SDS011;56357;52.304;4.870;2023-12-28T03:10:47;7.22;;;1.15;;
69244;SDS011;56357;52.304;4.870;2023-12-28T03:13:13;4.65;;;0.82;;
69244;SDS011;56357;52.304;4.870;2023-12-28T03:15:39;4.10;;;0.70;;
69244;SDS011;56357;52.304;4.870;2023-12-28T03:18:06;4.97;;;0.80;;
69244;SDS011;56357;52.304;4.870;2023-12-28T03:20:32;4.55;;;0.80;;
69244;SDS011;56357;52.304;4.870;2023-12-28T03:22:59;4.85;;;0.90;;
69244;SDS011;56357;52.304;4.870;2023-12-28T03:25:25;5.15;;;1.08;;
69244;SDS011;56357;52.304;4.870;2023-12-28T03:27:51;5.93;;;0.70;;
69244;SDS011;56357;52.304;4.870;2023-12-28T03:30:19;5.35;;;0.85;;
69244;SDS011;56357;52.304;4.870;2023-12-28T03:32:46;5.20;;;1.10;;
69244;SDS011;56357;52.304;4.870;2023-12-28T03:35:12;6.05;;;0.85;;
69244;SDS011;56357;52.304;4.870;2023-12-28T03:37:39;4.47;;;0.90;;
69244;SDS011;56357;52.304;4.870;2023-12-28T03:40:05;3.70;;;0.83;;
69244;SDS011;56357;52.304;4.870;2023-12-28T03:42:32;5.05;;;0.82;;
69244;SDS011;56357;52.304;4.870;2023-12-28T03:44:58;5.13;;;1.05;;
69244;SDS011;56357;52.304;4.870;2023-12-28T03:47:25;4.35;;;0.77;;
69244;SDS011;56357;52.304;4.870;2023-12-28T03:49:51;4.03;;;0.95;;
69244;SDS011;56357;52.304;4.870;2023-12-28T03:52:17;3.77;;;0.80;;
69244;SDS011;56357;52.304;4.870;2023-12-28T03:54:44;5.57;;;0.93;;
69244;SDS011;56357;52.304;4.870;2023-12-28T03:57:10;6.15;;;0.98;;
69244;SDS011;56357;52.304;4.870;2023-12-28T03:59:37;3.60;;;0.57;;
69244;SDS011;56357;52.304;4.870;2023-12-28T04:02:03;3.78;;;0.73;;
69244;SDS011;56357;52.304;4.870;2023-12-28T04:04:29;6.10;;;0.83;;
69244;SDS011;56357;52.304;4.870;2023-12-28T04:06:56;4.18;;;0.90;;
69244;SDS011;56357;52.304;4.870;2023-12-28T04:09:22;5.82;;;0.88;;
69244;SDS011;56357;52.304;4.870;2023-12-28T04:11:49;4.03;;;0.60;;
69244;SDS011;56357;52.304;4.870;2023-12-28T04:14:15;4.97;;;0.85;;
69244;SDS011;56357;52.304;4.870;2023-12-28T04:16:41;6.50;;;0.87;;
69244;SDS011;56357;52.304;4.870;2023-12-28T04:19:08;4.72;;;1.10;;
69244;SDS011;56357;52.304;4.870;2023-12-28T04:21:34;4.57;;;0.93;;
69244;SDS011;56357;52.304;4.870;2023-12-28T04:24:01;5.20;;;0.90;;
69244;SDS011;56357;52.304;4.870;2023-12-28T04:26:27;7.72;;;1.33;;
69244;SDS011;56357;52.304;4.870;2023-12-28T04:28:55;6.83;;;0.90;;
69244;SDS011;56357;52.304;4.870;2023-12-28T04:31:21;4.60;;;0.70;;
69244;SDS011;56357;52.304;4.870;2023-12-28T04:33:48;4.82;;;1.00;;
69244;SDS011;56357;52.304;4.870;2023-12-28T04:36:14;5.68;;;0.82;;
69244;SDS011;56357;52.304;4.870;2023-12-28T04:38:40;7.38;;;1.25;;
69244;SDS011;56357;52.304;4.870;2023-12-28T04:41:09;6.87;;;1.10;;
69244;SDS011;56357;52.304;4.870;2023-12-28T04:43:36;5.60;;;1.10;;
69244;SDS011;56357;52.304;4.870;2023-12-28T04:46:03;9.77;;;1.02;;
69244;SDS011;56357;52.304;4.870;2023-12-28T04:48:30;7.63;;;1.08;;
69244;SDS011;56357;52.304;4.870;2023-12-28T04:50:57;7.50;;;1.35;;
69244;SDS011;56357;52.304;4.870;2023-12-28T04:53:24;8.37;;;1.30;;
69244;SDS011;56357;52.304;4.870;2023-12-28T04:55:51;7.93;;;1.50;;
69244;SDS011;56357;52.304;4.870;2023-12-28T04:58:17;8.98;;;1.17;;
69244;SDS011;56357;52.304;4.870;2023-12-28T05:00:44;7.85;;;1.40;;
69244;SDS011;56357;52.304;4.870;2023-12-28T05:03:10;9.50;;;1.50;;
69244;SDS011;56357;52.304;4.870;2023-12-28T05:05:36;5.00;;;1.30;;
69244;SDS011;56357;52.304;4.870;2023-12-28T05:08:03;8.88;;;1.30;;
69244;SDS011;56357;52.304;4.870;2023-12-28T05:10:30;13.50;;;1.30;;
69244;SDS011;56357;52.304;4.870;2023-12-28T05:12:55;11.60;;;1.67;;
69244;SDS011;56357;52.304;4.870;2023-12-28T05:15:22;14.38;;;1.15;;
69244;SDS011;56357;52.304;4.870;2023-12-28T05:17:48;11.50;;;2.13;;
69244;SDS011;56357;52.304;4.870;2023-12-28T05:20:15;9.52;;;1.52;;
69244;SDS011;56357;52.304;4.870;2023-12-28T05:22:42;10.50;;;1.53;;
69244;SDS011;56357;52.304;4.870;2023-12-28T05:25:08;14.25;;;1.75;;
69244;SDS011;56357;52.304;4.870;2023-12-28T05:27:34;14.90;;;1.33;;
69244;SDS011;56357;52.304;4.870;2023-12-28T05:30:01;10.90;;;1.25;;
69244;SDS011;56357;52.304;4.870;2023-12-28T05:32:27;15.80;;;1.50;;
69244;SDS011;56357;52.304;4.870;2023-12-28T05:34:53;12.10;;;1.50;;
69244;SDS011;56357;52.304;4.870;2023-12-28T05:37:20;13.25;;;1.45;;
69244;SDS011;56357;52.304;4.870;2023-12-28T05:39:46;16.67;;;2.30;;
69244;SDS011;56357;52.304;4.870;2023-12-28T05:42:13;11.85;;;1.17;;
69244;SDS011;56357;52.304;4.870;2023-12-28T05:44:39;19.70;;;2.10;;
69244;SDS011;56357;52.304;4.870;2023-12-28T05:47:05;17.33;;;2.23;;
69244;SDS011;56357;52.304;4.870;2023-12-28T05:49:32;13.85;;;1.40;;
69244;SDS011;56357;52.304;4.870;2023-12-28T05:51:59;12.85;;;1.60;;
69244;SDS011;56357;52.304;4.870;2023-12-28T05:54:25;14.57;;;1.98;;
69244;SDS011;56357;52.304;4.870;2023-12-28T05:56:51;15.38;;;1.90;;
69244;SDS011;56357;52.304;4.870;2023-12-28T05:59:18;15.23;;;2.17;;
69244;SDS011;56357;52.304;4.870;2023-12-28T06:01:46;17.13;;;2.35;;
69244;SDS011;56357;52.304;4.870;2023-12-28T06:04:12;13.95;;;2.40;;
69244;SDS011;56357;52.304;4.870;2023-12-28T06:06:39;12.60;;;1.55;;
69244;SDS011;56357;52.304;4.870;2023-12-28T06:09:05;12.95;;;1.48;;
69244;SDS011;56357;52.304;4.870;2023-12-28T06:11:32;15.57;;;1.80;;
69244;SDS011;56357;52.304;4.870;2023-12-28T06:13:59;14.60;;;2.08;;
69244;SDS011;56357;52.304;4.870;2023-12-28T06:16:25;16.40;;;1.48;;
69244;SDS011;56357;52.304;4.870;2023-12-28T06:18:51;14.15;;;1.55;;
69244;SDS011;56357;52.304;4.870;2023-12-28T06:21:18;12.57;;;1.92;;
69244;SDS011;56357;52.304;4.870;2023-12-28T06:23:44;14.90;;;2.10;;
69244;SDS011;56357;52.304;4.870;2023-12-28T06:26:11;14.68;;;1.92;;
69244;SDS011;56357;52.304;4.870;2023-12-28T06:28:37;11.52;;;1.65;;
69244;SDS011;56357;52.304;4.870;2023-12-28T06:31:03;13.88;;;1.60;;
69244;SDS011;56357;52.304;4.870;2023-12-28T06:33:30;10.68;;;1.70;;
69244;SDS011;56357;52.304;4.870;2023-12-28T06:35:56;16.47;;;1.80;;
69244;SDS011;56357;52.304;4.870;2023-12-28T06:38:24;12.63;;;1.55;;
69244;SDS011;56357;52.304;4.870;2023-12-28T06:40:50;11.20;;;1.58;;
69244;SDS011;56357;52.304;4.870;2023-12-28T06:43:17;13.60;;;1.75;;
69244;SDS011;56357;52.304;4.870;2023-12-28T06:45:43;13.18;;;2.35;;
69244;SDS011;56357;52.304;4.870;2023-12-28T06:48:10;12.70;;;1.60;;
69244;SDS011;56357;52.304;4.870;2023-12-28T06:50:37;10.88;;;1.60;;
69244;SDS011;56357;52.304;4.870;2023-12-28T06:53:03;12.10;;;2.05;;
69244;SDS011;56357;52.304;4.870;2023-12-28T06:55:29;13.30;;;1.70;;
69244;SDS011;56357;52.304;4.870;2023-12-28T06:57:56;17.05;;;1.95;;
69244;SDS011;56357;52.304;4.870;2023-12-28T07:00:22;13.43;;;1.63;;
69244;SDS011;56357;52.304;4.870;2023-12-28T07:02:49;9.05;;;1.40;;
69244;SDS011;56357;52.304;4.870;2023-12-28T07:05:15;11.32;;;1.98;;
69244;SDS011;56357;52.304;4.870;2023-12-28T07:07:41;10.05;;;1.80;;
69244;SDS011;56357;52.304;4.870;2023-12-28T07:10:08;11.00;;;1.38;;
69244;SDS011;56357;52.304;4.870;2023-12-28T07:12:34;16.50;;;1.50;;
69244;SDS011;56357;52.304;4.870;2023-12-28T07:15:01;13.73;;;1.60;;
69244;SDS011;56357;52.304;4.870;2023-12-28T07:17:27;9.80;;;1.48;;
69244;SDS011;56357;52.304;4.870;2023-12-28T07:19:53;9.18;;;1.10;;
69244;SDS011;56357;52.304;4.870;2023-12-28T07:22:20;8.32;;;1.33;;
69244;SDS011;56357;52.304;4.870;2023-12-28T07:24:46;9.87;;;1.33;;
69244;SDS011;56357;52.304;4.870;2023-12-28T07:27:12;11.50;;;1.50;;
69244;SDS011;56357;52.304;4.870;2023-12-28T07:29:39;11.63;;;1.38;;
69244;SDS011;56357;52.304;4.870;2023-12-28T07:32:05;11.65;;;1.40;;
69244;SDS011;56357;52.304;4.870;2023-12-28T07:34:34;14.23;;;1.75;;
69244;SDS011;56357;52.304;4.870;2023-12-28T07:37:01;9.53;;;1.07;;
69244;SDS011;56357;52.304;4.870;2023-12-28T07:39:27;9.18;;;1.15;;
69244;SDS011;56357;52.304;4.870;2023-12-28T07:41:53;11.05;;;1.63;;
69244;SDS011;56357;52.304;4.870;2023-12-28T07:44:20;16.35;;;2.10;;
69244;SDS011;56357;52.304;4.870;2023-12-28T07:46:46;10.30;;;1.65;;
69244;SDS011;56357;52.304;4.870;2023-12-28T07:49:12;8.50;;;1.07;;
69244;SDS011;56357;52.304;4.870;2023-12-28T07:51:39;9.68;;;1.30;;
69244;SDS011;56357;52.304;4.870;2023-12-28T07:54:05;9.95;;;1.48;;
69244;SDS011;56357;52.304;4.870;2023-12-28T07:56:31;9.18;;;1.63;;
69244;SDS011;56357;52.304;4.870;2023-12-28T07:58:58;10.00;;;1.58;;
69244;SDS011;56357;52.304;4.870;2023-12-28T08:01:24;10.63;;;1.50;;
69244;SDS011;56357;52.304;4.870;2023-12-28T08:03:50;10.90;;;1.95;;
69244;SDS011;56357;52.304;4.870;2023-12-28T08:06:17;8.88;;;1.42;;
69244;SDS011;56357;52.304;4.870;2023-12-28T08:08:43;10.93;;;1.00;;
69244;SDS011;56357;52.304;4.870;2023-12-28T08:11:10;7.13;;;1.20;;
69244;SDS011;56357;52.304;4.870;2023-12-28T08:13:37;10.30;;;1.30;;
69244;SDS011;56357;52.304;4.870;2023-12-28T08:16:03;7.75;;;1.63;;
69244;SDS011;56357;52.304;4.870;2023-12-28T08:18:30;10.13;;;1.67;;
69244;SDS011;56357;52.304;4.870;2023-12-28T08:20:56;8.85;;;1.20;;
69244;SDS011;56357;52.304;4.870;2023-12-28T08:23:24;11.23;;;1.33;;
69244;SDS011;56357;52.304;4.870;2023-12-28T08:25:50;8.43;;;1.23;;
69244;SDS011;56357;52.304;4.870;2023-12-28T08:28:16;13.50;;;1.52;;
69244;SDS011;56357;52.304;4.870;2023-12-28T08:30:43;8.05;;;1.08;;
69244;SDS011;56357;52.304;4.870;2023-12-28T08:33:09;12.43;;;1.63;;
69244;SDS011;56357;52.304;4.870;2023-12-28T08:35:35;9.73;;;1.30;;
69244;SDS011;56357;52.304;4.870;2023-12-28T08:38:02;9.00;;;1.43;;
69244;SDS011;56357;52.304;4.870;2023-12-28T08:40:28;7.15;;;1.50;;
69244;SDS011;56357;52.304;4.870;2023-12-28T08:42:55;8.73;;;1.42;;
69244;SDS011;56357;52.304;4.870;2023-12-28T08:45:21;9.68;;;1.42;;
69244;SDS011;56357;52.304;4.870;2023-12-28T08:47:47;7.60;;;1.40;;
69244;SDS011;56357;52.304;4.870;2023-12-28T08:50:14;9.73;;;1.00;;
69244;SDS011;56357;52.304;4.870;2023-12-28T08:52:40;7.38;;;1.05;;
69244;SDS011;56357;52.304;4.870;2023-12-28T08:55:07;11.05;;;1.48;;
69244;SDS011;56357;52.304;4.870;2023-12-28T08:57:33;9.73;;;1.50;;
69244;SDS011;56357;52.304;4.870;2023-12-28T09:00:00;13.40;;;1.67;;
69244;SDS011;56357;52.304;4.870;2023-12-28T09:02:28;9.20;;;1.43;;
69244;SDS011;56357;52.304;4.870;2023-12-28T09:04:55;9.45;;;1.48;;
69244;SDS011;56357;52.304;4.870;2023-12-28T09:07:23;12.33;;;1.37;;
69244;SDS011;56357;52.304;4.870;2023-12-28T09:09:50;9.30;;;1.50;;
69244;SDS011;56357;52.304;4.870;2023-12-28T09:12:16;8.15;;;1.10;;
69244;SDS011;56357;52.304;4.870;2023-12-28T09:14:43;10.90;;;1.35;;
69244;SDS011;56357;52.304;4.870;2023-12-28T09:17:09;10.15;;;1.60;;
69244;SDS011;56357;52.304;4.870;2023-12-28T09:19:35;9.80;;;1.20;;
69244;SDS011;56357;52.304;4.870;2023-12-28T09:22:03;13.43;;;1.75;;
69244;SDS011;56357;52.304;4.870;2023-12-28T09:24:30;6.68;;;1.13;;
69244;SDS011;56357;52.304;4.870;2023-12-28T09:26:56;8.13;;;1.25;;
69244;SDS011;56357;52.304;4.870;2023-12-28T09:29:23;8.73;;;1.10;;
69244;SDS011;56357;52.304;4.870;2023-12-28T09:31:49;9.13;;;1.30;;
69244;SDS011;56357;52.304;4.870;2023-12-28T09:34:15;10.50;;;1.35;;
69244;SDS011;56357;52.304;4.870;2023-12-28T09:36:42;7.63;;;1.30;;
69244;SDS011;56357;52.304;4.870;2023-12-28T09:39:08;9.05;;;1.55;;
69244;SDS011;56357;52.304;4.870;2023-12-28T09:41:35;7.10;;;1.25;;
69244;SDS011;56357;52.304;4.870;2023-12-28T09:44:11;9.40;;;1.17;;
69244;SDS011;56357;52.304;4.870;2023-12-28T09:46:42;8.52;;;1.30;;
69244;SDS011;56357;52.304;4.870;2023-12-28T09:49:10;9.52;;;1.77;;
69244;SDS011;56357;52.304;4.870;2023-12-28T09:51:37;8.85;;;1.10;;
69244;SDS011;56357;52.304;4.870;2023-12-28T09:54:03;7.15;;;1.00;;
69244;SDS011;56357;52.304;4.870;2023-12-28T09:56:31;7.83;;;1.33;;
69244;SDS011;56357;52.304;4.870;2023-12-28T09:58:58;9.38;;;1.08;;
69244;SDS011;56357;52.304;4.870;2023-12-28T10:01:25;5.50;;;0.95;;
69244;SDS011;56357;52.304;4.870;2023-12-28T10:03:52;11.15;;;1.10;;
69244;SDS011;56357;52.304;4.870;2023-12-28T10:06:18;8.05;;;1.55;;
69244;SDS011;56357;52.304;4.870;2023-12-28T10:08:46;8.73;;;0.90;;
69244;SDS011;56357;52.304;4.870;2023-12-28T10:11:17;10.68;;;1.33;;
69244;SDS011;56357;52.304;4.870;2023-12-28T10:13:44;8.45;;;1.10;;
69244;SDS011;56357;52.304;4.870;2023-12-28T10:16:11;6.57;;;0.98;;
69244;SDS011;56357;52.304;4.870;2023-12-28T10:18:41;10.45;;;1.73;;
69244;SDS011;56357;52.304;4.870;2023-12-28T10:21:08;11.60;;;0.97;;
69244;SDS011;56357;52.304;4.870;2023-12-28T10:23:35;10.88;;;1.50;;
69244;SDS011;56357;52.304;4.870;2023-12-28T10:26:03;9.05;;;0.90;;
69244;SDS011;56357;52.304;4.870;2023-12-28T10:28:39;7.43;;;1.08;;
69244;SDS011;56357;52.304;4.870;2023-12-28T10:31:07;9.55;;;1.08;;
69244;SDS011;56357;52.304;4.870;2023-12-28T10:33:35;8.30;;;0.93;;
69244;SDS011;56357;52.304;4.870;2023-12-28T10:36:03;10.93;;;1.48;;
69244;SDS011;56357;52.304;4.870;2023-12-28T10:38:35;10.95;;;1.48;;
69244;SDS011;56357;52.304;4.870;2023-12-28T10:41:03;8.60;;;1.42;;
69244;SDS011;56357;52.304;4.870;2023-12-28T10:43:38;8.85;;;1.17;;
69244;SDS011;56357;52.304;4.870;2023-12-28T10:46:33;7.90;;;1.13;;
69244;SDS011;56357;52.304;4.870;2023-12-28T10:49:08;8.88;;;1.23;;
69244;SDS011;56357;52.304;4.870;2023-12-28T10:51:36;7.55;;;2.03;;
69244;SDS011;56357;52.304;4.870;2023-12-28T10:54:57;9.75;;;1.35;;
69244;SDS011;56357;52.304;4.870;2023-12-28T10:57:21;8.63;;;1.55;;
69244;SDS011;56357;52.304;4.870;2023-12-28T11:00:09;10.77;;;1.70;;
69244;SDS011;56357;52.304;4.870;2023-12-28T11:02:41;7.70;;;0.90;;
69244;SDS011;56357;52.304;4.870;2023-12-28T11:05:11;8.85;;;1.33;;
69244;SDS011;56357;52.304;4.870;2023-12-28T11:07:39;8.18;;;1.08;;
69244;SDS011;56357;52.304;4.870;2023-12-28T11:10:07;7.22;;;1.30;;
69244;SDS011;56357;52.304;4.870;2023-12-28T11:12:35;6.70;;;1.43;;
69244;SDS011;56357;52.304;4.870;2023-12-28T11:15:04;8.55;;;1.17;;
69244;SDS011;56357;52.304;4.870;2023-12-28T11:17:32;5.97;;;0.82;;
69244;SDS011;56357;52.304;4.870;2023-12-28T11:20:01;13.48;;;1.23;;
69244;SDS011;56357;52.304;4.870;2023-12-28T11:22:30;7.45;;;0.95;;
69244;SDS011;56357;52.304;4.870;2023-12-28T11:24:57;6.60;;;0.80;;
69244;SDS011;56357;52.304;4.870;2023-12-28T11:27:23;6.10;;;1.10;;
69244;SDS011;56357;52.304;4.870;2023-12-28T11:29:51;8.23;;;1.33;;
69244;SDS011;56357;52.304;4.870;2023-12-28T11:32:19;9.75;;;1.25;;
69244;SDS011;56357;52.304;4.870;2023-12-28T11:34:45;10.98;;;1.58;;
69244;SDS011;56357;52.304;4.870;2023-12-28T11:37:23;7.77;;;1.13;;
69244;SDS011;56357;52.304;4.870;2023-12-28T11:39:52;9.13;;;1.23;;
69244;SDS011;56357;52.304;4.870;2023-12-28T11:42:20;8.35;;;1.10;;
69244;SDS011;56357;52.304;4.870;2023-12-28T11:44:47;8.35;;;1.08;;
69244;SDS011;56357;52.304;4.870;2023-12-28T11:47:21;6.57;;;1.10;;
69244;SDS011;56357;52.304;4.870;2023-12-28T11:49:49;9.70;;;1.13;;
69244;SDS011;56357;52.304;4.870;2023-12-28T11:54:49;9.80;;;1.83;;
69244;SDS011;56357;52.304;4.870;2023-12-28T11:57:15;8.57;;;1.02;;
69244;SDS011;56357;52.304;4.870;2023-12-28T11:59:42;6.80;;;1.00;;
69244;SDS011;56357;52.304;4.870;2023-12-28T12:02:09;9.67;;;1.10;;
69244;SDS011;56357;52.304;4.870;2023-12-28T12:04:36;8.48;;;1.15;;
69244;SDS011;56357;52.304;4.870;2023-12-28T12:07:03;10.80;;;1.70;;
69244;SDS011;56357;52.304;4.870;2023-12-28T12:09:30;8.93;;;1.40;;
69244;SDS011;56357;52.304;4.870;2023-12-28T12:11:59;8.43;;;0.90;;
69244;SDS011;56357;52.304;4.870;2023-12-28T12:14:27;9.43;;;1.53;;
69244;SDS011;56357;52.304;4.870;2023-12-28T12:16:54;8.40;;;1.38;;
69244;SDS011;56357;52.304;4.870;2023-12-28T12:19:25;11.43;;;1.50;;
69244;SDS011;56357;52.304;4.870;2023-12-28T12:21:52;10.15;;;1.42;;
69244;SDS011;56357;52.304;4.870;2023-12-28T12:24:19;10.68;;;1.40;;
69244;SDS011;56357;52.304;4.870;2023-12-28T12:26:46;7.17;;;1.37;;
69244;SDS011;56357;52.304;4.870;2023-12-28T12:29:13;9.38;;;1.08;;
69244;SDS011;56357;52.304;4.870;2023-12-28T12:31:40;8.55;;;1.50;;
69244;SDS011;56357;52.304;4.870;2023-12-28T12:34:10;11.77;;;1.70;;
69244;SDS011;56357;52.304;4.870;2023-12-28T12:36:37;12.25;;;1.60;;
69244;SDS011;56357;52.304;4.870;2023-12-28T12:39:04;11.37;;;1.70;;
69244;SDS011;56357;52.304;4.870;2023-12-28T12:41:31;10.93;;;1.30;;
69244;SDS011;56357;52.304;4.870;2023-12-28T12:44:01;8.75;;;1.20;;
69244;SDS011;56357;52.304;4.870;2023-12-28T12:46:27;11.80;;;1.30;;
69244;SDS011;56357;52.304;4.870;2023-12-28T12:48:57;6.07;;;1.00;;
69244;SDS011;56357;52.304;4.870;2023-12-28T12:51:26;9.23;;;0.90;;
69244;SDS011;56357;52.304;4.870;2023-12-28T12:53:59;9.18;;;1.17;;
69244;SDS011;56357;52.304;4.870;2023-12-28T12:56:26;10.75;;;1.60;;
69244;SDS011;56357;52.304;4.870;2023-12-28T12:58:54;5.93;;;1.02;;
69244;SDS011;56357;52.304;4.870;2023-12-28T13:01:20;6.75;;;0.90;;
69244;SDS011;56357;52.304;4.870;2023-12-28T13:03:47;10.10;;;1.60;;
69244;SDS011;56357;52.304;4.870;2023-12-28T13:06:13;8.63;;;1.67;;
69244;SDS011;56357;52.304;4.870;2023-12-28T13:08:40;8.13;;;1.35;;
69244;SDS011;56357;52.304;4.870;2023-12-28T13:11:06;6.82;;;1.05;;
69244;SDS011;56357;52.304;4.870;2023-12-28T13:13:33;6.10;;;1.20;;
69244;SDS011;56357;52.304;4.870;2023-12-28T13:15:59;7.23;;;1.10;;
69244;SDS011;56357;52.304;4.870;2023-12-28T13:18:26;12.38;;;1.45;;
69244;SDS011;56357;52.304;4.870;2023-12-28T13:20:52;8.27;;;1.75;;
69244;SDS011;56357;52.304;4.870;2023-12-28T13:23:19;8.18;;;1.20;;
69244;SDS011;56357;52.304;4.870;2023-12-28T13:25:45;8.38;;;1.10;;
69244;SDS011;56357;52.304;4.870;2023-12-28T13:28:12;9.03;;;1.03;;
69244;SDS011;56357;52.304;4.870;2023-12-28T13:30:39;8.13;;;1.23;;
69244;SDS011;56357;52.304;4.870;2023-12-28T13:33:06;10.68;;;1.10;;
69244;SDS011;56357;52.304;4.870;2023-12-28T13:35:32;8.77;;;1.02;;
69244;SDS011;56357;52.304;4.870;2023-12-28T13:37:59;7.10;;;1.15;;
69244;SDS011;56357;52.304;4.870;2023-12-28T13:40:27;7.80;;;1.20;;
69244;SDS011;56357;52.304;4.870;2023-12-28T13:42:55;8.73;;;1.52;;
69244;SDS011;56357;52.304;4.870;2023-12-28T13:45:21;5.80;;;1.25;;
69244;SDS011;56357;52.304;4.870;2023-12-28T13:47:48;11.80;;;1.65;;
69244;SDS011;56357;52.304;4.870;2023-12-28T13:50:14;6.68;;;0.98;;
69244;SDS011;56357;52.304;4.870;2023-12-28T13:52:41;9.03;;;1.20;;
69244;SDS011;56357;52.304;4.870;2023-12-28T13:55:07;8.65;;;1.23;;
69244;SDS011;56357;52.304;4.870;2023-12-28T13:57:34;8.23;;;1.13;;
69244;SDS011;56357;52.304;4.870;2023-12-28T14:00:00;6.95;;;0.90;;
69244;SDS011;56357;52.304;4.870;2023-12-28T14:02:27;7.38;;;1.20;;
69244;SDS011;56357;52.304;4.870;2023-12-28T14:04:54;8.97;;;1.70;;
69244;SDS011;56357;52.304;4.870;2023-12-28T14:07:21;6.68;;;1.13;;
69244;SDS011;56357;52.304;4.870;2023-12-28T14:09:50;8.52;;;1.45;;
69244;SDS011;56357;52.304;4.870;2023-12-28T14:12:17;9.27;;;1.00;;
69244;SDS011;56357;52.304;4.870;2023-12-28T14:14:43;8.27;;;1.35;;
69244;SDS011;56357;52.304;4.870;2023-12-28T14:17:10;6.17;;;1.00;;
69244;SDS011;56357;52.304;4.870;2023-12-28T14:19:36;7.90;;;1.30;;
69244;SDS011;56357;52.304;4.870;2023-12-28T14:22:03;6.93;;;1.20;;
69244;SDS011;56357;52.304;4.870;2023-12-28T14:24:29;7.82;;;0.95;;
69244;SDS011;56357;52.304;4.870;2023-12-28T14:26:56;5.32;;;0.85;;
69244;SDS011;56357;52.304;4.870;2023-12-28T14:29:23;7.27;;;1.07;;
69244;SDS011;56357;52.304;4.870;2023-12-28T14:31:50;6.38;;;0.88;;
69244;SDS011;56357;52.304;4.870;2023-12-28T14:34:17;8.43;;;1.13;;
69244;SDS011;56357;52.304;4.870;2023-12-28T14:36:44;7.53;;;0.93;;
69244;SDS011;56357;52.304;4.870;2023-12-28T14:39:14;7.10;;;0.90;;
69244;SDS011;56357;52.304;4.870;2023-12-28T14:41:43;6.70;;;0.80;;
69244;SDS011;56357;52.304;4.870;2023-12-28T14:44:09;5.78;;;0.85;;
69244;SDS011;56357;52.304;4.870;2023-12-28T14:46:36;10.73;;;1.15;;